»·PEaware :: N716TH KBUR-KLAS

N716TH :: KBUR-KLAS

FLIGHT INFORMATION

Flight Status: Arrived
Operator: Privately registered:
United States
More flights under this callsign
Pilot: Danny R. (17997)
Aircraft: CESSNA 172 SKYHAWK
(C172)
More flights by this aircraft type
Origin: KBUR Bob Hope-Burbank
United States
Destination: KLAS McCarran Intl
United States
More flights between these airports :: More routes between these airports
Route: +VNY3 DAG CRESO4
File this flight plan on PilotEdge
Remarks: I-5
Altitude:
(Current/Filed)
9,000ft
Speed:
(Current/Filed)
100kts
Departed: 01-Apr-18 11:13 AM
Arrived: 01-Apr-18 01:27 PM
Distance/Time
Traveled:
193nm/2:13
Distance/Time
To Go:
Arrived

Flight Plot

Page will automatically refresh every two minutes.

Flight plan parsing failed; only flown route is shown


Map Options




Map Legend


Flown Route
Filed Route
Departure Airport
Arrival Airport
Navaid (VOR, NDB)
Fix

Horizontal Profiles

Position Reports

Time Latitude Longitude Heading Altitude Ground
Speed
01-Apr-18 10:37 34.200204 -118.358745 263 781ft 0kts
01-Apr-18 10:38 34.200204 -118.358745 263 781ft 0kts
01-Apr-18 10:39 34.200204 -118.358745 263 781ft 0kts
01-Apr-18 10:40 34.200204 -118.358745 263 781ft 0kts
01-Apr-18 10:41 34.200204 -118.358745 263 781ft 0kts
01-Apr-18 10:42 34.200204 -118.358745 263 781ft 0kts
01-Apr-18 10:43 34.200204 -118.358745 263 781ft 0kts
01-Apr-18 10:44 34.200204 -118.358745 263 781ft 0kts
01-Apr-18 10:45 34.200204 -118.358745 263 781ft 0kts
01-Apr-18 10:46 34.200204 -118.358745 263 781ft 0kts
01-Apr-18 10:47 34.200204 -118.358745 263 781ft 0kts
01-Apr-18 10:48 34.200204 -118.358745 263 781ft 0kts
01-Apr-18 10:49 34.200204 -118.358745 263 781ft 0kts
01-Apr-18 10:50 34.200204 -118.358745 263 781ft 0kts
01-Apr-18 10:51 34.200204 -118.358745 263 781ft 0kts
01-Apr-18 10:52 34.200204 -118.358745 263 781ft 0kts
01-Apr-18 10:53 34.200204 -118.358745 263 781ft 0kts
01-Apr-18 10:54 34.200204 -118.358745 263 781ft 0kts
01-Apr-18 10:55 34.200204 -118.358745 263 781ft 0kts
01-Apr-18 10:56 34.200204 -118.358745 263 781ft 0kts
01-Apr-18 10:57 34.200204 -118.358745 263 781ft 0kts
01-Apr-18 10:58 34.200204 -118.358745 263 781ft 0kts
01-Apr-18 10:59 34.200204 -118.358745 263 781ft 0kts
01-Apr-18 11:00 34.200204 -118.358745 263 781ft 0kts
01-Apr-18 11:01 34.200204 -118.358745 263 781ft 0kts
01-Apr-18 11:02 34.200204 -118.358745 263 781ft 0kts
01-Apr-18 11:03 34.200204 -118.358745 263 781ft 0kts
01-Apr-18 11:04 34.200204 -118.358745 263 781ft 0kts
01-Apr-18 11:05 34.200204 -118.358745 263 781ft 0kts
01-Apr-18 11:06 34.199529 -118.359241 264 781ft 12kts
01-Apr-18 11:07 34.199022 -118.363719 268 781ft 17kts
01-Apr-18 11:08 34.199042 -118.368956 228 781ft 10kts
01-Apr-18 11:09 34.198820 -118.369085 183 781ft 0kts
01-Apr-18 11:10 34.198684 -118.369102 183 781ft 0kts
01-Apr-18 11:11 34.198050 -118.368659 122 781ft 14kts
01-Apr-18 11:12 34.196647 -118.349308 100 1234ft 71kts
01-Apr-18 11:13 34.180881 -118.353805 228 1953ft 73kts
01-Apr-18 11:14 34.166892 -118.371423 224 2676ft 74kts
01-Apr-18 11:15 34.152433 -118.388744 259 3371ft 74kts
01-Apr-18 11:16 34.168206 -118.397713 341 4078ft 67kts
01-Apr-18 11:17 34.184798 -118.404537 340 4755ft 65kts
01-Apr-18 11:18 34.204518 -118.411163 341 5314ft 81kts
01-Apr-18 11:19 34.226776 -118.420225 341 5893ft 87kts
01-Apr-18 11:20 34.249728 -118.429582 341 6480ft 87kts
01-Apr-18 11:21 34.271987 -118.438652 340 7152ft 74kts
01-Apr-18 11:22 34.291194 -118.446489 340 7713ft 74kts
01-Apr-18 11:23 34.311090 -118.453187 354 8245ft 75kts
01-Apr-18 11:24 34.331650 -118.454803 355 8759ft 74kts
01-Apr-18 11:25 34.353539 -118.456490 356 9068ft 93kts
01-Apr-18 11:26 34.381039 -118.458581 356 9082ft 102kts
01-Apr-18 11:27 34.399715 -118.434415 53 9095ft 104kts
01-Apr-18 11:28 34.416974 -118.406532 52 9094ft 103kts
01-Apr-18 11:29 34.434622 -118.378404 49 9039ft 107kts
01-Apr-18 11:30 34.452687 -118.349685 49 9021ft 107kts
01-Apr-18 11:31 34.470662 -118.321038 49 9022ft 106kts
01-Apr-18 11:32 34.488616 -118.292388 49 9020ft 107kts
01-Apr-18 11:33 34.506567 -118.263751 49 9019ft 107kts
01-Apr-18 11:34 34.524542 -118.235060 49 9017ft 107kts
01-Apr-18 11:35 34.542522 -118.206296 49 9015ft 107kts
01-Apr-18 11:36 34.560455 -118.177623 49 9014ft 106kts
01-Apr-18 11:37 34.578279 -118.149084 49 9011ft 106kts
01-Apr-18 11:38 34.596153 -118.120457 49 9012ft 107kts
01-Apr-18 11:39 34.614343 -118.091304 52 8985ft 110kts
01-Apr-18 11:40 34.632000 -118.061078 78 8983ft 109kts
01-Apr-18 11:41 34.635794 -118.024776 84 8985ft 108kts
01-Apr-18 11:42 34.639712 -117.988526 82 8989ft 107kts
01-Apr-18 11:43 34.643632 -117.952743 82 8985ft 106kts
01-Apr-18 11:44 34.647515 -117.917341 82 8983ft 105kts
01-Apr-18 11:45 34.651401 -117.881994 82 8982ft 105kts
01-Apr-18 11:46 34.655994 -117.846929 80 8980ft 105kts
01-Apr-18 11:47 34.660098 -117.811740 80 8979ft 105kts
01-Apr-18 11:48 34.664072 -117.776573 82 8977ft 105kts
01-Apr-18 11:49 34.669813 -117.749946 69 8977ft 105kts
01-Apr-18 11:50 34.680221 -117.716340 69 8957ft 106kts
01-Apr-18 11:51 34.690719 -117.682461 69 8932ft 107kts
01-Apr-18 11:52 34.701016 -117.649217 69 8959ft 105kts
01-Apr-18 11:53 34.711278 -117.616086 69 8960ft 105kts
01-Apr-18 11:54 34.721029 -117.582831 69 8982ft 104kts
01-Apr-18 11:55 34.730801 -117.548773 69 8973ft 109kts
01-Apr-18 11:56 34.741746 -117.514156 69 8975ft 110kts
01-Apr-18 11:57 34.752724 -117.479497 69 8971ft 109kts
01-Apr-18 11:58 34.763704 -117.444839 69 8969ft 109kts
01-Apr-18 11:59 34.774634 -117.410342 69 8968ft 109kts
01-Apr-18 12:00 34.785591 -117.375765 69 8966ft 109kts
01-Apr-18 12:01 34.796432 -117.341529 71 8990ft 107kts
01-Apr-18 12:02 34.793007 -117.305948 100 8978ft 109kts
01-Apr-18 12:03 34.787731 -117.269459 100 8976ft 109kts
01-Apr-18 12:04 34.782536 -117.233090 96 8974ft 109kts
01-Apr-18 12:05 34.790936 -117.197732 70 8966ft 109kts
01-Apr-18 12:06 34.800702 -117.162849 71 8966ft 108kts
01-Apr-18 12:07 34.810372 -117.128247 71 9010ft 99kts
01-Apr-18 12:08 34.819092 -117.094743 74 8994ft 102kts
01-Apr-18 12:09 34.826506 -117.061173 76 8999ft 103kts
01-Apr-18 12:10 34.832807 -117.026876 78 8999ft 104kts
01-Apr-18 12:11 34.847045 -116.997219 72 8993ft 104kts
01-Apr-18 12:12 34.856191 -116.963890 71 8995ft 104kts
01-Apr-18 12:13 34.865465 -116.930480 71 8993ft 104kts
01-Apr-18 12:14 34.874750 -116.897008 71 8992ft 104kts
01-Apr-18 12:15 34.884002 -116.863616 71 8992ft 104kts
01-Apr-18 12:16 34.893271 -116.830106 71 8989ft 104kts
01-Apr-18 12:17 34.902529 -116.796609 71 8989ft 104kts
01-Apr-18 12:18 34.911780 -116.763105 71 8988ft 104kts
01-Apr-18 12:19 34.921076 -116.729388 71 8988ft 105kts
01-Apr-18 12:20 34.930388 -116.695557 71 8985ft 105kts
01-Apr-18 12:21 34.939709 -116.661671 71 8985ft 105kts
01-Apr-18 12:22 34.949019 -116.627779 71 8983ft 105kts
01-Apr-18 12:23 34.958297 -116.593955 69 8982ft 105kts
01-Apr-18 12:24 34.970355 -116.561521 58 8977ft 105kts
01-Apr-18 12:25 34.984751 -116.530324 58 8974ft 105kts
01-Apr-18 12:26 34.999205 -116.499192 58 8974ft 105kts
01-Apr-18 12:27 35.013667 -116.467900 58 8974ft 105kts
01-Apr-18 12:28 35.028093 -116.436651 58 8974ft 105kts
01-Apr-18 12:29 35.042399 -116.405636 58 8982ft 105kts
01-Apr-18 12:30 35.056855 -116.374268 58 8978ft 106kts
01-Apr-18 12:31 35.071173 -116.343183 59 8999ft 103kts
01-Apr-18 12:32 35.085327 -116.312415 59 9006ft 104kts
01-Apr-18 12:33 35.099604 -116.281351 58 9006ft 105kts
01-Apr-18 12:34 35.113635 -116.250802 54 9029ft 104kts
01-Apr-18 12:35 35.127843 -116.219846 59 9027ft 105kts
01-Apr-18 12:36 35.142209 -116.188499 59 9026ft 105kts
01-Apr-18 12:37 35.156558 -116.157160 59 9024ft 106kts
01-Apr-18 12:38 35.170959 -116.125686 59 9023ft 106kts
01-Apr-18 12:39 35.182576 -116.092838 82 9021ft 111kts
01-Apr-18 12:40 35.188430 -116.057123 54 9021ft 104kts
01-Apr-18 12:41 35.202014 -116.025717 55 9019ft 104kts
01-Apr-18 12:42 35.215593 -115.994095 60 9017ft 105kts
01-Apr-18 12:43 35.229164 -115.962441 60 9016ft 105kts
01-Apr-18 12:44 35.242803 -115.930609 60 9015ft 105kts
01-Apr-18 12:45 35.256470 -115.898672 60 9013ft 105kts
01-Apr-18 12:46 35.270094 -115.866819 60 9012ft 105kts
01-Apr-18 12:47 35.283468 -115.834642 62 9011ft 106kts
01-Apr-18 12:48 35.299531 -115.805187 45 9013ft 104kts
01-Apr-18 12:49 35.319115 -115.779077 45 9014ft 103kts
01-Apr-18 12:50 35.338495 -115.753217 45 9012ft 102kts
01-Apr-18 12:51 35.357664 -115.727611 45 9010ft 102kts
01-Apr-18 12:52 35.376871 -115.701960 45 9009ft 102kts
01-Apr-18 12:53 35.395980 -115.676401 45 9007ft 102kts
01-Apr-18 12:54 35.415156 -115.650735 45 9005ft 102kts
01-Apr-18 12:55 35.434621 -115.624651 45 8896ft 111kts
01-Apr-18 12:56 35.456388 -115.595432 45 8617ft 117kts
01-Apr-18 12:57 35.474913 -115.562902 62 8341ft 119kts
01-Apr-18 12:58 35.489209 -115.526161 62 8059ft 119kts
01-Apr-18 12:59 35.503512 -115.489449 62 7773ft 119kts
01-Apr-18 13:00 35.517814 -115.452744 62 7524ft 115kts
01-Apr-18 13:01 35.528998 -115.423605 61 7960ft 84kts
01-Apr-18 13:02 35.543715 -115.398629 31 7995ft 97kts
01-Apr-18 13:03 35.567062 -115.380294 30 8000ft 101kts
01-Apr-18 13:04 35.591178 -115.361360 30 8000ft 104kts
01-Apr-18 13:05 35.615230 -115.342268 31 8002ft 103kts
01-Apr-18 13:06 35.639334 -115.323097 31 8002ft 103kts
01-Apr-18 13:07 35.663547 -115.303839 31 8002ft 104kts
01-Apr-18 13:08 35.687887 -115.284478 31 8000ft 104kts
01-Apr-18 13:09 35.708099 -115.268395 31 7999ft 104kts
01-Apr-18 13:10 35.732312 -115.249125 31 7999ft 104kts
01-Apr-18 13:11 35.761160 -115.226175 31 7866ft 113kts
01-Apr-18 13:12 35.787961 -115.204857 31 7623ft 115kts
01-Apr-18 13:13 35.814501 -115.183822 31 7387ft 114kts
01-Apr-18 13:14 35.839266 -115.173129 11 7172ft 115kts
01-Apr-18 13:15 35.870203 -115.165087 11 7001ft 109kts
01-Apr-18 13:16 35.899467 -115.157497 11 6991ft 106kts
01-Apr-18 13:17 35.935566 -115.148118 11 6597ft 117kts
01-Apr-18 13:18 35.967385 -115.139791 11 6227ft 117kts
01-Apr-18 13:19 35.993932 -115.132836 11 5921ft 117kts
01-Apr-18 13:20 36.024107 -115.125099 7 5355ft 97kts
01-Apr-18 13:21 36.050166 -115.127502 345 4453ft 95kts
01-Apr-18 13:22 36.074668 -115.138153 3 3578ft 97kts
01-Apr-18 13:23 36.098165 -115.129643 20 3065ft 75kts
01-Apr-18 13:24 36.108693 -115.140629 284 2839ft 71kts
01-Apr-18 13:25 36.100344 -115.156216 203 2250ft 65kts
01-Apr-18 13:26 36.094136 -115.160725 287 2145ft 0kts
01-Apr-18 13:27 36.094390 -115.161743 242 2145ft 12kts
01-Apr-18 13:28 36.089630 -115.164593 202 2145ft 22kts
01-Apr-18 13:29 36.084837 -115.167923 206 2145ft 19kts
01-Apr-18 13:30 36.082507 -115.169987 87 2145ft 0kts
01-Apr-18 13:31 36.082507 -115.169987 88 2145ft 0kts

Navigation Log

Ident Type
Flight plan parsing failed, navigation log unavailable